Time;durP1;ratioP1;P1;durP2;ratioP2;P2;SDS_P1;SDS_P2;PMS_P1;PMS_P2;Temp;Humidity;BMP_temperature;BMP_pressure;BME280_temperature;BME280_humidity;BME280_pressure;Samples;Min_cycle;Max_cycle;Signal;HPM_P1;HPM_P2
2022/11/14 00:00:50;;;;;;;2.33;0.50;;;25.20;56.90;;;;;;5093672;28;20364;-83
2022/11/14 00:03:17;;;;;;;1.92;0.60;;;25.10;55.40;;;;;;5093614;28;20781;-82
2022/11/14 00:05:45;;;;;;;4.80;0.68;;;25.00;56.00;;;;;;5093523;28;20422;-83
2022/11/14 00:08:18;;;;;;;3.60;0.52;;;25.00;56.60;;;;;;5092423;28;20835;-82
2022/11/14 00:10:46;;;;;;;2.67;0.40;;;25.10;57.20;;;;;;5094005;28;20370;-83
2022/11/14 00:13:14;;;;;;;1.50;0.60;;;25.10;56.90;;;;;;5093497;28;20459;-83
2022/11/14 00:15:41;;;;;;;2.63;0.75;;;25.10;56.80;;;;;;5094106;28;20369;-83
2022/11/14 00:18:07;;;;;;;2.13;0.60;;;25.20;57.10;;;;;;5093423;28;20851;-82
2022/11/14 00:20:35;;;;;;;2.03;0.70;;;25.40;58.00;;;;;;5093873;28;20372;-83
2022/11/14 00:23:05;;;;;;;2.23;0.87;;;25.40;56.50;;;;;;5093300;28;20379;-83
2022/11/14 00:25:32;;;;;;;2.55;0.70;;;25.50;57.00;;;;;;5093475;28;20391;-83
2022/11/14 00:27:59;;;;;;;1.95;0.60;;;25.60;56.70;;;;;;5092996;28;20412;-83
2022/11/14 00:30:28;;;;;;;3.03;0.70;;;25.40;57.10;;;;;;5093170;28;20836;-83
2022/11/14 00:32:55;;;;;;;2.67;0.70;;;25.50;57.60;;;;;;5093411;28;20467;-82
2022/11/14 00:35:22;;;;;;;2.78;0.70;;;25.60;56.90;;;;;;5093037;28;20402;-83
2022/11/14 00:37:50;;;;;;;1.77;0.60;;;25.80;56.40;;;;;;5092859;28;20373;-85
2022/11/14 00:40:17;;;;;;;3.03;0.75;;;25.70;56.10;;;;;;5093097;28;20471;-83
2022/11/14 00:42:44;;;;;;;1.42;0.80;;;25.70;55.50;;;;;;5092893;28;20771;-82
2022/11/14 00:45:11;;;;;;;2.35;0.60;;;25.90;55.80;;;;;;5092931;28;20844;-83
2022/11/14 00:47:38;;;;;;;2.03;0.60;;;26.00;54.90;;;;;;5092988;28;20434;-83
2022/11/14 00:50:06;;;;;;;1.70;0.38;;;26.10;55.00;;;;;;5092814;28;20379;-83
2022/11/14 00:52:33;;;;;;;2.13;0.50;;;26.10;52.40;;;;;;5092687;28;20401;-83
2022/11/14 00:55:00;;;;;;;3.75;0.80;;;26.30;53.50;;;;;;5092686;28;20478;-82
2022/11/14 00:57:27;;;;;;;4.53;0.50;;;26.50;53.60;;;;;;5092861;28;20770;-83
2022/11/14 00:59:54;;;;;;;1.42;0.38;;;26.30;51.90;;;;;;5092359;28;20422;-83
2022/11/14 01:02:22;;;;;;;1.37;0.50;;;26.20;52.60;;;;;;5092243;28;20448;-83
2022/11/14 01:04:49;;;;;;;1.88;0.60;;;26.20;52.30;;;;;;5092771;28;20372;-85
2022/11/14 01:07:16;;;;;;;2.40;0.50;;;26.30;53.10;;;;;;5092447;28;20876;-83
2022/11/14 01:09:43;;;;;;;2.40;0.50;;;26.30;52.00;;;;;;5092970;28;20384;-83
2022/11/14 01:12:10;;;;;;;2.83;0.40;;;26.30;50.90;;;;;;5092394;28;20913;-82
2022/11/14 01:14:38;;;;;;;2.00;0.50;;;26.40;52.70;;;;;;5092417;28;20736;-83
2022/11/14 01:17:05;;;;;;;2.40;0.50;;;26.70;51.00;;;;;;5092369;28;20377;-85
2022/11/14 01:19:32;;;;;;;2.05;0.50;;;26.60;51.80;;;;;;5091985;28;20456;-82
2022/11/14 01:21:59;;;;;;;2.15;0.52;;;26.80;52.20;;;;;;5092284;28;20391;-81
2022/11/14 01:24:26;;;;;;;1.10;0.47;;;26.90;52.10;;;;;;5092179;28;20380;-82
2022/11/14 01:26:55;;;;;;;2.63;0.40;;;26.70;52.00;;;;;;5091900;28;20400;-81
2022/11/14 01:29:26;;;;;;;2.45;0.55;;;26.80;51.10;;;;;;5092316;27;20413;-81
2022/11/14 01:31:52;;;;;;;4.10;0.45;;;27.00;52.40;;;;;;5092076;28;20391;-81
2022/11/14 01:34:19;;;;;;;3.50;0.30;;;27.30;50.20;;;;;;5092476;28;20404;-83
2022/11/14 01:36:46;;;;;;;1.50;0.40;;;27.30;49.60;;;;;;5092027;28;20415;-82
2022/11/14 01:39:13;;;;;;;2.43;0.33;;;27.40;49.60;;;;;;5092417;28;20724;-82
2022/11/14 01:41:40;;;;;;;2.13;0.52;;;27.20;50.30;;;;;;5092094;28;20376;-82
2022/11/14 01:44:37;;;;;;;1.15;0.40;;;27.60;50.10;;;;;;5091988;28;20379;-84
2022/11/14 01:47:05;;;;;;;1.90;0.40;;;27.90;50.80;;;;;;5092281;28;20384;-82
2022/11/14 01:49:41;;;;;;;0.68;0.38;;;28.30;49.90;;;;;;5092077;28;20894;-82
2022/11/14 01:52:22;;;;;;;2.70;0.40;;;28.70;49.40;;;;;;5092060;28;20743;-80
2022/11/14 01:55:01;;;;;;;1.40;0.40;;;28.70;48.30;;;;;;5092185;28;20368;-81
2022/11/14 01:57:41;;;;;;;0.97;0.50;;;28.50;47.50;;;;;;5091914;28;20388;-82
2022/11/14 02:00:11;;;;;;;2.25;0.50;;;27.90;49.20;;;;;;5091846;28;20368;-81
2022/11/14 02:02:38;;;;;;;0.90;0.37;;;28.30;49.20;;;;;;5091798;28;20372;-83
2022/11/14 02:05:12;;;;;;;1.55;0.30;;;28.40;47.90;;;;;;5092082;28;20463;-83
2022/11/14 02:07:40;;;;;;;3.72;0.43;;;28.50;48.10;;;;;;5091812;28;20406;-82
2022/11/14 02:10:17;;;;;;;1.25;0.40;;;28.40;47.00;;;;;;5092014;28;20770;-83
2022/11/14 02:12:46;;;;;;;1.50;0.30;;;28.30;48.10;;;;;;5091814;28;20369;-82
2022/11/14 02:15:14;;;;;;;1.83;0.32;;;28.40;48.10;;;;;;5091834;28;20375;-81
2022/11/14 02:17:42;;;;;;;1.80;0.38;;;28.10;47.20;;;;;;5091993;28;20376;-83
2022/11/14 02:20:12;;;;;;;1.45;0.30;;;28.10;48.50;;;;;;5091652;28;20376;-82
2022/11/14 02:22:41;;;;;;;1.67;0.73;;;28.70;48.40;;;;;;5092171;28;20443;-83
2022/11/14 02:25:10;;;;;;;1.60;0.32;;;29.60;47.30;;;;;;5091660;28;20369;-83
2022/11/14 02:27:38;;;;;;;2.40;0.30;;;28.70;46.80;;;;;;5091390;28;20748;-83
2022/11/14 02:30:07;;;;;;;3.72;0.43;;;27.60;47.90;;;;;;5092357;28;20889;-82
2022/11/14 02:32:34;;;;;;;3.55;0.45;;;27.20;48.60;;;;;;5095305;28;20437;-83
2022/11/14 02:35:01;;;;;;;1.45;0.20;;;27.50;48.80;;;;;;5095326;28;21012;-82
2022/11/14 02:37:28;;;;;;;2.72;0.30;;;28.50;47.40;;;;;;5095397;28;20391;-82
2022/11/14 02:39:55;;;;;;;0.70;0.28;;;28.80;45.20;;;;;;5095202;28;20380;-84
2022/11/14 02:42:22;;;;;;;1.05;0.30;;;28.10;45.80;;;;;;5095187;28;20373;-82
2022/11/14 02:44:49;;;;;;;0.60;0.40;;;27.90;46.60;;;;;;5095100;28;20376;-82
2022/11/14 02:47:16;;;;;;;1.55;0.30;;;27.90;47.30;;;;;;5095114;28;20396;-82
2022/11/14 02:49:43;;;;;;;1.27;0.30;;;28.00;47.70;;;;;;5095094;28;20912;-80
2022/11/14 02:52:10;;;;;;;3.92;0.40;;;27.90;47.80;;;;;;5095220;28;20433;-81
2022/11/14 02:54:37;;;;;;;0.98;0.30;;;27.90;47.60;;;;;;5094995;28;20372;-81
2022/11/14 02:57:04;;;;;;;1.20;0.30;;;28.20;47.80;;;;;;5094879;28;20373;-83
2022/11/14 02:59:31;;;;;;;4.00;0.40;;;28.60;48.30;;;;;;5094843;28;20426;-83
2022/11/14 03:01:58;;;;;;;1.08;0.47;;;28.40;47.20;;;;;;5094870;28;20441;-82
2022/11/14 03:04:25;;;;;;;2.72;0.40;;;28.40;48.30;;;;;;5095088;28;20379;-82
2022/11/14 03:06:52;;;;;;;1.80;0.30;;;28.30;49.70;;;;;;5094631;28;20376;-83
2022/11/14 03:09:19;;;;;;;0.55;0.30;;;28.10;49.30;;;;;;5094671;28;20376;-82
2022/11/14 03:11:46;;;;;;;1.70;0.40;;;28.40;51.10;;;;;;5094938;28;20871;-82
2022/11/14 03:14:13;;;;;;;2.60;0.40;;;28.70;49.70;;;;;;5095130;28;20381;-83
2022/11/14 03:16:40;;;;;;;1.83;0.30;;;29.00;47.80;;;;;;5094498;28;20521;-83
2022/11/14 03:19:07;;;;;;;1.60;0.32;;;28.90;48.20;;;;;;5094462;28;20380;-84
2022/11/14 03:21:34;;;;;;;0.93;0.40;;;29.10;50.10;;;;;;5094388;28;20372;-83
2022/11/14 03:24:01;;;;;;;1.02;0.40;;;29.10;50.20;;;;;;5094334;28;20383;-85
2022/11/14 03:26:28;;;;;;;2.70;0.40;;;28.80;49.00;;;;;;5094144;28;20611;-84
2022/11/14 03:28:55;;;;;;;0.95;0.40;;;28.40;49.70;;;;;;5094163;28;20411;-83
2022/11/14 03:31:22;;;;;;;1.15;0.50;;;28.30;49.90;;;;;;5094345;28;20454;-83
2022/11/14 03:33:49;;;;;;;2.28;0.40;;;28.70;50.40;;;;;;5094145;28;20376;-81
2022/11/14 03:36:16;;;;;;;1.25;0.45;;;28.60;49.50;;;;;;5092757;28;20751;-82
2022/11/14 03:38:43;;;;;;;1.10;0.40;;;28.90;48.90;;;;;;5094081;28;20923;-81
2022/11/14 03:41:10;;;;;;;1.70;0.40;;;29.10;49.10;;;;;;5093742;28;20839;-82
2022/11/14 03:43:37;;;;;;;3.20;0.50;;;28.90;48.70;;;;;;5094036;28;20376;-82
2022/11/14 03:46:04;;;;;;;3.88;0.70;;;28.60;49.10;;;;;;5094013;28;20372;-83
2022/11/14 03:48:31;;;;;;;3.08;0.70;;;28.70;49.90;;;;;;5094134;28;20404;-82
2022/11/14 03:50:59;;;;;;;2.75;0.60;;;28.60;50.50;;;;;;5093923;28;20372;-82
2022/11/14 03:53:27;;;;;;;1.35;0.47;;;28.90;49.50;;;;;;5093792;28;20916;-81
2022/11/14 03:55:54;;;;;;;2.25;0.50;;;28.90;48.90;;;;;;5093732;28;20426;-82
2022/11/14 03:58:21;;;;;;;1.23;0.30;;;28.50;48.80;;;;;;5093653;28;20376;-83
2022/11/14 04:00:48;;;;;;;2.22;0.57;;;28.40;49.30;;;;;;5093633;28;20447;-81
2022/11/14 04:03:15;;;;;;;1.33;0.50;;;28.40;50.00;;;;;;5093511;28;20860;-82
2022/11/14 04:05:45;;;;;;;2.22;0.30;;;28.50;49.90;;;;;;5093452;28;20372;-82
2022/11/14 04:08:12;;;;;;;3.05;0.80;;;28.40;50.00;;;;;;5093467;28;20415;-82
2022/11/14 04:10:40;;;;;;;2.40;0.40;;;28.70;50.00;;;;;;5093430;28;20383;-82
2022/11/14 04:13:07;;;;;;;1.65;0.55;;;29.30;48.60;;;;;;5093405;28;20461;-83
2022/11/14 04:15:35;;;;;;;3.03;0.45;;;29.30;47.30;;;;;;5093362;28;20376;-84
2022/11/14 04:18:02;;;;;;;4.10;0.40;;;29.30;48.60;;;;;;5093289;28;20863;-83
2022/11/14 04:20:29;;;;;;;1.80;0.30;;;28.90;46.40;;;;;;5093213;28;20380;-83
2022/11/14 04:22:56;;;;;;;2.03;0.40;;;28.80;47.60;;;;;;5093624;28;20383;-84
2022/11/14 04:25:23;;;;;;;1.55;0.40;;;28.50;48.20;;;;;;5093371;28;20365;-84
2022/11/14 04:27:50;;;;;;;2.63;0.47;;;28.50;47.80;;;;;;5093144;28;21000;-82
2022/11/14 04:30:17;;;;;;;1.75;0.60;;;28.60;48.10;;;;;;5094132;28;20422;-84
2022/11/14 04:32:47;;;;;;;3.65;0.98;;;28.90;48.20;;;;;;5095178;28;20381;-84
2022/11/14 04:35:14;;;;;;;5.13;1.02;;;28.10;48.50;;;;;;5095079;28;20511;-83
2022/11/14 04:37:41;;;;;;;3.00;0.50;;;28.10;49.90;;;;;;5097992;28;20464;-82
2022/11/14 04:40:09;;;;;;;0.73;0.40;;;28.80;48.60;;;;;;5094605;28;20391;-81
2022/11/14 04:42:37;;;;;;;2.08;0.40;;;29.40;48.40;;;;;;5095314;28;20391;-83
2022/11/14 04:45:05;;;;;;;3.50;0.47;;;29.90;46.90;;;;;;5094897;28;20870;-82
2022/11/14 04:47:32;;;;;;;1.52;0.40;;;29.70;47.50;;;;;;5093933;28;20422;-83
2022/11/14 04:49:59;;;;;;;3.58;0.50;;;29.90;46.40;;;;;;5094402;28;20369;-83
2022/11/14 04:52:25;;;;;;;1.50;0.30;;;29.80;47.00;;;;;;5094057;28;20417;-83
2022/11/14 04:54:53;;;;;;;1.43;0.40;;;29.30;46.50;;;;;;5094216;28;20365;-82
2022/11/14 04:57:20;;;;;;;1.25;0.40;;;29.50;47.60;;;;;;5094469;28;20426;-82
2022/11/14 04:59:47;;;;;;;0.60;0.40;;;29.00;47.50;;;;;;5093763;28;20369;-82
2022/11/14 05:02:14;;;;;;;1.95;0.40;;;28.20;49.30;;;;;;5093875;28;20466;-82
2022/11/14 05:04:43;;;;;;;1.00;0.40;;;28.20;48.40;;;;;;5093994;28;20379;-82
2022/11/14 05:07:10;;;;;;;1.75;0.50;;;28.30;49.70;;;;;;5093182;28;20388;-82
2022/11/14 05:09:37;;;;;;;1.73;0.50;;;28.00;49.20;;;;;;5094032;28;20376;-82
2022/11/14 05:12:04;;;;;;;2.35;0.40;;;28.30;49.00;;;;;;5093186;28;20375;-82
2022/11/14 05:14:31;;;;;;;2.20;0.32;;;28.70;48.70;;;;;;5092798;28;20380;-82
2022/11/14 05:16:59;;;;;;;1.60;0.40;;;29.10;46.70;;;;;;5091219;28;20717;-83
2022/11/14 05:19:26;;;;;;;1.33;0.40;;;29.50;47.10;;;;;;5093392;28;20745;-83
2022/11/14 05:21:53;;;;;;;2.47;0.40;;;28.40;46.00;;;;;;5092682;28;20372;-83
2022/11/14 05:24:20;;;;;;;2.85;0.40;;;27.40;47.30;;;;;;5092873;28;20908;-82
2022/11/14 05:26:47;;;;;;;1.83;0.40;;;26.60;48.60;;;;;;5092687;28;20392;-83
2022/11/14 05:29:14;;;;;;;1.73;0.40;;;26.70;48.50;;;;;;5092864;28;20478;-83
2022/11/14 05:31:41;;;;;;;1.58;0.40;;;27.10;48.50;;;;;;5092799;28;20406;-82
2022/11/14 05:34:08;;;;;;;1.83;0.35;;;27.40;48.80;;;;;;5092626;28;20376;-86
2022/11/14 05:36:35;;;;;;;2.20;0.47;;;27.10;47.00;;;;;;5092325;28;20799;-84
2022/11/14 05:39:03;;;;;;;2.85;0.40;;;26.70;48.10;;;;;;5091400;28;20392;-83
2022/11/14 05:41:30;;;;;;;2.80;0.40;;;26.50;48.60;;;;;;5094574;28;20792;-82
2022/11/14 05:43:57;;;;;;;2.75;0.40;;;26.30;49.20;;;;;;5093175;28;20768;-82
2022/11/14 05:46:24;;;;;;;1.90;0.40;;;26.40;48.30;;;;;;5092402;28;20373;-83
2022/11/14 05:48:51;;;;;;;0.55;0.30;;;26.70;48.40;;;;;;5093133;28;20404;-84
2022/11/14 05:51:18;;;;;;;1.40;0.30;;;27.20;47.50;;;;;;5092381;28;20365;-84
2022/11/14 05:53:45;;;;;;;1.63;0.30;;;27.60;46.30;;;;;;5092638;28;20395;-84
2022/11/14 05:56:13;;;;;;;1.08;0.25;;;28.10;45.80;;;;;;5092296;28;20454;-83
2022/11/14 05:58:40;;;;;;;1.13;0.30;;;27.90;45.00;;;;;;5092155;28;20419;-83
2022/11/14 06:01:13;;;;;;;1.38;0.30;;;27.70;45.50;;;;;;5092275;28;20373;-85
2022/11/14 06:03:43;;;;;;;2.85;0.45;;;27.50;45.20;;;;;;5093068;28;20372;-83
2022/11/14 06:06:16;;;;;;;1.10;0.30;;;27.80;45.40;;;;;;5097151;28;20840;-83
2022/11/14 06:08:43;;;;;;;0.75;0.25;;;28.10;46.10;;;;;;5096698;28;20400;-84
2022/11/14 06:11:16;;;;;;;1.48;0.30;;;28.00;45.20;;;;;;5095817;28;20377;-81
2022/11/14 06:13:43;;;;;;;0.65;0.20;;;28.10;45.00;;;;;;5095890;28;20364;-82
2022/11/14 06:19:32;;;;;;;1.55;0.30;;;27.70;45.50;;;;;;5096120;28;20394;-81
2022/11/14 06:21:59;;;;;;;3.42;0.60;;;27.70;45.30;;;;;;5095777;28;20414;-82
2022/11/14 06:24:26;;;;;;;1.73;0.70;;;27.50;46.30;;;;;;5095810;28;20392;-82
2022/11/14 06:26:53;;;;;;;2.90;0.80;;;27.40;46.00;;;;;;5095572;28;20388;-82
2022/11/14 06:29:20;;;;;;;1.60;0.43;;;27.40;46.30;;;;;;5095774;28;20484;-81
2022/11/14 06:31:47;;;;;;;4.28;1.88;;;28.00;47.00;;;;;;5094730;28;20412;-82
2022/11/14 06:34:14;;;;;;;1.25;0.47;;;27.80;45.90;;;;;;5095926;28;20376;-81
2022/11/14 06:36:41;;;;;;;1.02;0.43;;;27.50;45.90;;;;;;5096016;28;20375;-82
2022/11/14 06:39:08;;;;;;;2.30;0.40;;;27.20;45.80;;;;;;5096309;28;20369;-83
2022/11/14 06:41:35;;;;;;;0.70;0.30;;;27.20;46.60;;;;;;5095904;28;20887;-82
2022/11/14 06:44:02;;;;;;;1.57;0.30;;;27.20;46.80;;;;;;5095562;28;20450;-83
2022/11/14 06:46:29;;;;;;;0.95;0.30;;;27.20;46.70;;;;;;5095936;28;20394;-82
2022/11/14 06:48:56;;;;;;;0.50;0.30;;;27.30;46.70;;;;;;5095144;28;20407;-82
2022/11/14 06:51:23;;;;;;;1.67;0.40;;;27.40;46.80;;;;;;5128257;27;20387;-81
2022/11/14 06:53:50;;;;;;;0.45;0.30;;;27.30;46.10;;;;;;5095155;28;20459;-81
2022/11/14 06:56:19;;;;;;;0.85;0.35;;;27.50;46.20;;;;;;5095042;28;20547;-82
2022/11/14 06:58:50;;;;;;;0.50;0.30;;;27.40;45.90;;;;;;5095316;28;20364;-82
2022/11/14 07:01:19;;;;;;;1.40;0.38;;;26.70;47.10;;;;;;5095769;28;20764;-82
2022/11/14 07:03:47;;;;;;;0.90;0.30;;;26.60;47.40;;;;;;5094841;28;20460;-81
2022/11/14 07:06:18;;;;;;;1.65;0.40;;;26.70;47.70;;;;;;5093845;28;20721;-82
2022/11/14 07:08:45;;;;;;;0.45;0.30;;;27.00;48.00;;;;;;5095127;28;20433;-83
2022/11/14 07:11:21;;;;;;;1.10;0.23;;;26.70;47.10;;;;;;5095070;28;20706;-82
2022/11/14 07:13:57;;;;;;;1.20;0.30;;;26.10;48.50;;;;;;5094697;28;20368;-82
2022/11/14 07:16:30;;;;;;;1.80;0.38;;;26.40;48.60;;;;;;5094126;28;20849;-82
2022/11/14 07:19:01;;;;;;;0.55;0.30;;;27.00;48.80;;;;;;5095844;28;20364;-84
2022/11/14 07:21:29;;;;;;;0.82;0.22;;;26.70;47.70;;;;;;5094590;28;20372;-83
2022/11/14 07:23:57;;;;;;;1.65;0.45;;;26.10;48.40;;;;;;5094701;28;20369;-82
2022/11/14 07:26:25;;;;;;;1.25;0.40;;;25.80;49.70;;;;;;5094400;28;20412;-81
2022/11/14 07:28:52;;;;;;;2.50;0.50;;;25.40;49.60;;;;;;5094433;28;20977;-82
2022/11/14 07:31:20;;;;;;;2.60;0.30;;;25.10;49.10;;;;;;5094474;28;20368;-85
2022/11/14 07:33:47;;;;;;;1.77;0.30;;;24.90;49.90;;;;;;5094325;28;20418;-82
2022/11/14 07:36:15;;;;;;;1.23;0.38;;;25.30;49.60;;;;;;5094311;28;20368;-86
2022/11/14 07:38:42;;;;;;;1.80;0.30;;;25.80;48.90;;;;;;5093135;28;20383;-84
2022/11/14 07:41:12;;;;;;;1.90;0.40;;;25.90;48.80;;;;;;5094192;28;20851;-81
2022/11/14 07:43:40;;;;;;;0.70;0.30;;;25.80;49.90;;;;;;5094980;28;20462;-85
2022/11/14 07:46:13;;;;;;;1.20;0.60;;;25.80;48.30;;;;;;5094181;28;20377;-81
2022/11/14 07:48:41;;;;;;;1.63;0.40;;;25.80;48.30;;;;;;5094030;28;20530;-82
2022/11/14 07:51:14;;;;;;;2.80;0.50;;;25.40;47.50;;;;;;5094239;28;20377;-84
2022/11/14 07:53:41;;;;;;;3.63;0.40;;;25.20;47.80;;;;;;5094012;28;20383;-83
2022/11/14 07:56:09;;;;;;;1.52;0.40;;;24.90;47.90;;;;;;5094024;28;20768;-80
2022/11/14 07:58:38;;;;;;;1.30;0.30;;;24.70;48.70;;;;;;5093882;28;20860;-84
2022/11/14 08:01:06;;;;;;;0.40;0.30;;;24.50;49.50;;;;;;5093971;28;20759;-85
2022/11/14 08:03:34;;;;;;;0.85;0.22;;;24.30;50.70;;;;;;5094220;28;20789;-81
2022/11/14 08:06:09;;;;;;;1.30;0.30;;;24.00;51.80;;;;;;5093854;28;20455;-82
2022/11/14 08:08:37;;;;;;;1.73;0.30;;;23.90;52.70;;;;;;5093637;28;20825;-81
2022/11/14 08:11:04;;;;;;;0.80;0.20;;;23.80;52.30;;;;;;5094106;28;20720;-82
2022/11/14 08:13:32;;;;;;;0.70;0.30;;;23.70;52.40;;;;;;5094013;28;20375;-81
2022/11/14 08:16:02;;;;;;;1.70;0.30;;;23.70;52.70;;;;;;5093976;28;20364;-82
2022/11/14 08:18:29;;;;;;;1.93;0.30;;;23.50;54.00;;;;;;5093614;28;20429;-82
2022/11/14 08:20:56;;;;;;;0.65;0.30;;;23.40;54.20;;;;;;5093556;28;20386;-81
2022/11/14 08:23:23;;;;;;;1.60;0.30;;;23.10;55.10;;;;;;5093773;28;20400;-82
2022/11/14 08:25:50;;;;;;;1.10;0.30;;;22.90;55.60;;;;;;5093288;28;20767;-82
2022/11/14 08:28:17;;;;;;;0.82;0.22;;;22.80;55.60;;;;;;5092720;28;20733;-82
2022/11/14 08:30:44;;;;;;;1.25;0.30;;;22.60;55.90;;;;;;5093317;28;20371;-83
2022/11/14 08:33:11;;;;;;;1.10;0.40;;;22.50;56.50;;;;;;5093301;28;20454;-81
2022/11/14 08:35:38;;;;;;;1.10;0.40;;;22.50;56.70;;;;;;5093293;28;20372;-82
2022/11/14 08:38:05;;;;;;;2.33;0.30;;;22.40;56.70;;;;;;5093224;28;20377;-82
2022/11/14 08:40:32;;;;;;;0.63;0.40;;;22.30;56.80;;;;;;5093397;28;20372;-81
2022/11/14 08:43:00;;;;;;;0.40;0.30;;;22.20;57.30;;;;;;5093347;28;20388;-82
2022/11/14 08:45:28;;;;;;;1.20;0.40;;;22.20;57.20;;;;;;5093372;28;20372;-81
2022/11/14 08:47:56;;;;;;;0.93;0.40;;;22.20;57.80;;;;;;5092873;28;20396;-81
2022/11/14 08:50:23;;;;;;;1.48;0.45;;;22.10;57.70;;;;;;5093210;28;20365;-80
2022/11/14 08:52:51;;;;;;;1.50;0.40;;;22.10;57.90;;;;;;5093362;28;20428;-81
2022/11/14 08:55:19;;;;;;;1.60;0.40;;;22.00;58.10;;;;;;5093071;28;20848;-81
2022/11/14 08:57:46;;;;;;;3.17;0.90;;;22.00;58.40;;;;;;5092946;28;20439;-80
2022/11/14 09:00:14;;;;;;;1.77;0.60;;;21.90;58.80;;;;;;5092958;28;20372;-81
2022/11/14 09:02:41;;;;;;;1.07;0.50;;;21.90;58.40;;;;;;5092625;28;20786;-81
2022/11/14 09:05:08;;;;;;;0.93;0.45;;;21.90;59.80;;;;;;5092772;28;20391;-81
2022/11/14 09:07:35;;;;;;;2.28;0.60;;;21.80;59.10;;;;;;5092666;28;20392;-83
2022/11/14 09:10:03;;;;;;;1.15;0.38;;;21.70;59.90;;;;;;5092892;28;20399;-81
2022/11/14 09:12:30;;;;;;;1.98;0.50;;;21.60;60.40;;;;;;5092773;28;20369;-81
2022/11/14 09:14:57;;;;;;;3.00;0.50;;;21.40;60.90;;;;;;5092774;28;20437;-81
2022/11/14 09:17:24;;;;;;;0.98;0.40;;;21.40;61.10;;;;;;5093106;28;20376;-81
2022/11/14 09:19:51;;;;;;;0.57;0.40;;;21.30;62.20;;;;;;5091049;28;20376;-81
2022/11/14 09:22:18;;;;;;;0.98;0.40;;;21.20;62.50;;;;;;5092504;28;20455;-81
2022/11/14 09:24:46;;;;;;;3.13;0.60;;;21.10;63.60;;;;;;5092443;28;20902;-82
2022/11/14 09:27:13;;;;;;;1.67;0.40;;;21.00;63.30;;;;;;5092039;28;20380;-81
2022/11/14 09:29:40;;;;;;;2.03;0.70;;;20.90;64.90;;;;;;5092634;28;20380;-81
2022/11/14 09:32:08;;;;;;;1.35;0.50;;;20.80;65.60;;;;;;5092337;28;20860;-82
2022/11/14 09:34:36;;;;;;;2.50;0.50;;;20.60;66.90;;;;;;5092453;28;20391;-82
2022/11/14 09:37:03;;;;;;;0.83;0.50;;;20.50;67.20;;;;;;5092321;28;20408;-82
2022/11/14 09:39:30;;;;;;;4.30;0.60;;;20.40;67.20;;;;;;5092104;28;20372;-81
2022/11/14 09:42:30;;;;;;;1.17;0.50;;;20.30;68.20;;;;;;5092213;28;20400;-81
2022/11/14 09:45:27;;;;;;;1.63;0.70;;;20.20;68.70;;;;;;5089932;28;20380;-81
2022/11/14 09:48:03;;;;;;;2.20;1.33;;;20.10;70.00;;;;;;5049929;28;20404;-81
2022/11/14 09:50:42;;;;;;;1.80;1.00;;;20.10;69.90;;;;;;5050034;28;20367;-82
2022/11/14 09:53:31;;;;;;;1.50;0.90;;;19.90;70.20;;;;;;5050216;28;20388;-81
2022/11/14 09:55:59;;;;;;;1.52;0.50;;;19.90;70.60;;;;;;5050004;28;20387;-82
2022/11/14 09:58:26;;;;;;;1.15;0.70;;;19.90;68.40;;;;;;5050245;28;20748;-81
2022/11/14 10:00:56;;;;;;;2.05;0.50;;;20.00;68.20;;;;;;5049994;28;20966;-82
2022/11/14 10:03:30;;;;;;;1.42;0.70;;;20.20;67.10;;;;;;5049799;28;20875;-81
2022/11/14 10:06:06;;;;;;;3.08;0.70;;;20.30;67.40;;;;;;5050626;28;20376;-81
2022/11/14 10:08:53;;;;;;;1.38;0.60;;;20.30;67.00;;;;;;5050425;28;20420;-82
2022/11/14 10:11:35;;;;;;;1.58;0.60;;;20.30;66.90;;;;;;5010184;28;20367;-81
2022/11/14 10:14:26;;;;;;;1.25;0.70;;;20.40;67.60;;;;;;5010572;28;20386;-82
2022/11/14 10:17:33;;;;;;;1.43;0.60;;;20.40;67.00;;;;;;5010285;28;20372;-82
2022/11/14 10:20:14;;;;;;;1.77;0.50;;;20.40;67.00;;;;;;4951984;29;20373;-81
2022/11/14 10:22:50;;;;;;;0.57;0.55;;;20.40;66.20;;;;;;4935629;29;20828;-81
2022/11/14 10:25:27;;;;;;;1.20;0.60;;;20.40;66.70;;;;;;4952119;29;20386;-80
2022/11/14 10:28:03;;;;;;;1.30;0.60;;;20.40;67.10;;;;;;4951438;28;20501;-80
2022/11/14 10:30:40;;;;;;;1.20;0.57;;;20.30;67.70;;;;;;4951622;29;20380;-82
2022/11/14 10:33:32;;;;;;;1.27;0.70;;;20.20;67.80;;;;;;4951456;29;20475;-82
2022/11/14 10:36:04;;;;;;;2.30;0.75;;;20.10;68.80;;;;;;4951821;28;20380;-81
2022/11/14 10:39:15;;;;;;;0.77;0.68;;;20.00;69.60;;;;;;4951753;29;20770;-81
2022/11/14 10:41:44;;;;;;;1.40;0.70;;;20.00;70.10;;;;;;4951904;29;20805;-81
2022/11/14 10:44:17;;;;;;;0.60;0.47;;;20.00;70.90;;;;;;4951645;29;20809;-81
2022/11/14 10:46:49;;;;;;;0.93;0.60;;;20.00;71.00;;;;;;4952039;29;20386;-82
2022/11/14 10:49:20;;;;;;;1.90;0.63;;;20.00;71.60;;;;;;5001516;28;20922;-81
2022/11/14 10:51:54;;;;;;;2.95;0.60;;;19.90;71.30;;;;;;5011926;28;20755;-82
2022/11/14 10:54:45;;;;;;;2.17;0.60;;;20.00;72.50;;;;;;5013592;28;20422;-82
2022/11/14 10:57:18;;;;;;;3.22;0.50;;;19.90;72.50;;;;;;5060819;28;20507;-82
2022/11/14 10:59:46;;;;;;;1.77;0.60;;;20.00;71.80;;;;;;5095141;28;20403;-82
2022/11/14 11:02:14;;;;;;;0.87;0.50;;;20.10;71.90;;;;;;5095362;28;20866;-82
2022/11/14 11:04:43;;;;;;;1.67;0.60;;;20.20;71.80;;;;;;5110820;28;20455;-80
2022/11/14 11:11:28;;;;;;;0.40;0.40;;;20.20;72.40;;;;;;5095044;28;20376;-81
2022/11/14 11:12:53;;;;;;;1.13;0.43;;;20.10;72.40;;;;;;5095101;28;20406;-81
2022/11/14 11:15:22;;;;;;;0.80;0.40;;;20.10;73.20;;;;;;5094756;28;20376;-80
2022/11/14 11:17:57;;;;;;;0.70;0.50;;;20.00;73.50;;;;;;5095320;28;20383;-81
2022/11/14 11:20:32;;;;;;;1.52;0.50;;;20.00;74.00;;;;;;5094638;28;20784;-81
2022/11/14 11:23:11;;;;;;;1.02;0.60;;;20.00;74.90;;;;;;5094838;28;20414;-81
2022/11/14 11:25:39;;;;;;;1.52;0.60;;;19.90;75.00;;;;;;5094439;28;20372;-80
2022/11/14 11:28:19;;;;;;;1.90;0.70;;;19.90;73.80;;;;;;5094253;28;20491;-80
2022/11/14 11:30:57;;;;;;;1.00;0.40;;;19.90;73.50;;;;;;5094420;28;20369;-80
2022/11/14 11:33:26;;;;;;;1.20;0.40;;;19.90;73.40;;;;;;5094210;28;20446;-80
2022/11/14 11:36:00;;;;;;;0.30;0.30;;;19.90;73.40;;;;;;5094931;28;20364;-81
2022/11/14 11:38:30;;;;;;;0.65;0.40;;;19.80;74.00;;;;;;5094410;28;20373;-81
2022/11/14 11:41:11;;;;;;;1.10;0.30;;;19.80;73.70;;;;;;5094182;28;20373;-81
2022/11/14 11:43:50;;;;;;;0.63;0.40;;;19.80;73.60;;;;;;5094194;28;20741;-80
2022/11/14 11:46:32;;;;;;;0.40;0.30;;;19.70;74.10;;;;;;5094068;28;20377;-80
2022/11/14 11:49:07;;;;;;;0.60;0.30;;;19.60;75.30;;;;;;5094175;28;20415;-81
2022/11/14 11:51:40;;;;;;;1.13;0.50;;;19.50;75.80;;;;;;5094371;28;20365;-81
2022/11/14 11:54:21;;;;;;;1.60;0.50;;;19.50;76.80;;;;;;5092553;28;20381;-82
2022/11/14 11:56:54;;;;;;;1.30;0.50;;;19.50;77.80;;;;;;5094579;28;20365;-81
2022/11/14 11:59:54;;;;;;;0.95;0.60;;;19.40;78.50;;;;;;5093962;28;20403;-81
2022/11/14 12:02:25;;;;;;;0.90;0.50;;;19.40;79.80;;;;;;5093747;28;20361;-82
2022/11/14 12:04:55;;;;;;;2.25;0.57;;;19.40;80.60;;;;;;5093828;28;20387;-81
2022/11/14 12:07:33;;;;;;;0.80;0.50;;;19.40;81.60;;;;;;5093629;28;20402;-81
2022/11/14 12:10:07;;;;;;;1.50;0.40;;;19.40;81.30;;;;;;5094238;28;20396;-81
2022/11/14 12:12:43;;;;;;;0.55;0.50;;;19.30;82.30;;;;;;5093508;28;20443;-81
2022/11/14 12:15:34;;;;;;;0.82;0.50;;;19.30;83.10;;;;;;5094050;28;20697;-80
2022/11/14 12:18:07;;;;;;;0.70;0.32;;;19.30;83.10;;;;;;5093961;28;20360;-80
2022/11/14 12:20:52;;;;;;;2.15;0.30;;;19.20;83.00;;;;;;5094060;28;20369;-81
2022/11/14 12:23:37;;;;;;;0.40;0.40;;;19.20;83.80;;;;;;5093529;28;20372;-80
2022/11/14 12:26:06;;;;;;;0.60;0.40;;;19.20;83.80;;;;;;5093443;28;20361;-81
2022/11/14 12:29:10;;;;;;;1.20;0.40;;;19.20;84.30;;;;;;5093822;28;20396;-81
2022/11/14 12:31:38;;;;;;;0.73;0.32;;;19.20;85.00;;;;;;5093396;28;20380;-80
2022/11/14 12:34:31;;;;;;;0.77;0.30;;;19.10;85.30;;;;;;5093314;28;20369;-80
2022/11/14 12:36:58;;;;;;;0.60;0.30;;;19.10;85.10;;;;;;5093225;28;20414;-80
2022/11/14 12:39:30;;;;;;;0.52;0.30;;;19.10;85.70;;;;;;5093218;28;20451;-81
2022/11/14 12:42:10;;;;;;;1.35;0.30;;;19.00;86.70;;;;;;5093482;28;20368;-80
2022/11/14 12:44:39;;;;;;;0.40;0.30;;;19.00;87.20;;;;;;5093045;28;20369;-81
2022/11/14 12:47:06;;;;;;;0.65;0.32;;;19.00;86.60;;;;;;5093320;28;20437;-80
2022/11/14 12:49:48;;;;;;;0.77;0.32;;;19.00;88.70;;;;;;5092977;28;20372;-80
2022/11/14 12:52:47;;;;;;;1.58;0.30;;;18.90;89.20;;;;;;5092930;28;20369;-80
2022/11/14 12:55:26;;;;;;;1.13;0.40;;;18.80;90.00;;;;;;5092818;28;20433;-81
2022/11/14 12:57:56;;;;;;;0.95;0.30;;;18.80;90.50;;;;;;5092783;28;20368;-81
2022/11/14 13:00:24;;;;;;;1.02;0.25;;;18.70;90.80;;;;;;5093635;28;20380;-81
2022/11/14 13:03:14;;;;;;;0.30;0.30;;;18.70;91.40;;;;;;5092806;28;20418;-80
2022/11/14 13:05:58;;;;;;;0.68;0.30;;;18.60;91.40;;;;;;5092768;28;20860;-80
2022/11/14 13:08:46;;;;;;;1.27;0.35;;;18.60;91.90;;;;;;5092610;28;20899;-80
2022/11/14 13:21:44;;;;;;;0.70;0.30;;;18.60;92.50;;;;;;5093478;28;20368;-81